Time;durP1;ratioP1;P1;durP2;ratioP2;P2;SDS_P1;SDS_P2;PMS_P1;PMS_P2;Temp;Humidity;BMP_temperature;BMP_pressure;BME280_temperature;BME280_humidity;BME280_pressure;Samples;Min_cycle;Max_cycle;Signal;HPM_P1;HPM_P2
2022/04/21 00:00:43;;;;;;;6.03;5.63;;;;;;;6.72;100.00;99410.31;5049195;28;20701;-57
2022/04/21 00:03:10;;;;;;;6.20;5.80;;;;;;;6.67;100.00;99418.09;5048881;28;20199;-58
2022/04/21 00:05:37;;;;;;;5.73;5.43;;;;;;;6.54;100.00;99421.75;5048901;28;20196;-58
2022/04/21 00:08:04;;;;;;;6.30;5.70;;;;;;;6.51;100.00;99430.38;5048806;28;20197;-59
2022/04/21 00:10:32;;;;;;;6.40;5.90;;;;;;;6.45;100.00;99427.88;5048836;28;20284;-58
2022/04/21 00:12:59;;;;;;;6.10;5.70;;;;;;;6.33;100.00;99430.63;5048766;28;20588;-58
2022/04/21 00:15:28;;;;;;;5.87;5.47;;;;;;;6.39;100.00;99427.13;5048690;28;20192;-58
2022/04/21 00:17:56;;;;;;;6.50;5.90;;;;;;;6.42;100.00;99427.09;5049889;28;20221;-58
2022/04/21 00:20:23;;;;;;;6.17;5.67;;;;;;;6.32;100.00;99430.66;5049129;28;20199;-57
2022/04/21 00:25:34;;;;;;;5.77;5.37;;;;;;;6.35;100.00;99425.44;5048705;28;20227;-56
2022/04/21 00:28:01;;;;;;;5.90;5.50;;;;;;;6.38;100.00;99425.41;5048501;28;20280;-56
2022/04/21 00:30:30;;;;;;;6.03;5.67;;;;;;;6.39;100.00;99430.56;5048707;28;20200;-55
2022/04/21 00:32:57;;;;;;;5.63;5.27;;;;;;;6.33;100.00;99427.19;5048869;28;20591;-56
2022/04/21 00:35:24;;;;;;;6.60;6.00;;;;;;;6.30;100.00;99446.16;5048838;28;20630;-57
2022/04/21 00:37:52;;;;;;;5.87;5.47;;;;;;;6.31;100.00;99439.25;5048615;28;20705;-57
2022/04/21 00:40:21;;;;;;;5.87;5.47;;;;;;;6.32;100.00;99439.22;5048558;28;20206;-59
2022/04/21 00:42:49;;;;;;;5.33;4.97;;;;;;;6.30;100.00;99438.41;5048590;28;20201;-58
2022/04/21 00:45:16;;;;;;;5.80;5.40;;;;;;;6.28;100.00;99440.16;5048673;28;20288;-58
2022/04/21 00:47:46;;;;;;;5.80;5.33;;;;;;;6.16;100.00;99430.84;5048388;28;20232;-58
2022/04/21 00:50:16;;;;;;;5.80;5.40;;;;;;;6.25;100.00;99455.63;5048455;28;20232;-57
2022/04/21 00:52:44;;;;;;;6.50;6.00;;;;;;;6.22;100.00;99450.50;5048422;28;20208;-58
2022/04/21 00:55:12;;;;;;;6.47;6.00;;;;;;;6.20;100.00;99449.72;5048216;28;20204;-57
2022/04/21 00:57:41;;;;;;;6.10;5.70;;;;;;;6.19;100.00;99456.59;5047744;28;20231;-58
2022/04/21 01:00:09;;;;;;;6.47;5.87;;;;;;;6.17;100.00;99455.75;5047816;28;20207;-57
2022/04/21 01:02:49;;;;;;;6.40;5.90;;;;;;;6.22;100.00;99455.66;5048199;28;20291;-58
2022/04/21 01:05:20;;;;;;;6.23;5.73;;;;;;;6.22;100.00;99449.66;5048033;28;20739;-58
2022/04/21 01:07:47;;;;;;;6.00;5.60;;;;;;;6.20;100.00;99462.59;5047997;28;20205;-58
2022/04/21 01:10:15;;;;;;;6.07;5.67;;;;;;;6.29;100.00;99472.78;5048105;28;20211;-56
2022/04/21 01:12:44;;;;;;;6.80;6.13;;;;;;;6.32;100.00;99471.91;5048008;28;20669;-58
2022/04/21 01:15:11;;;;;;;7.10;6.27;;;;;;;6.35;100.00;99472.69;5047946;28;20592;-57
2022/04/21 01:17:40;;;;;;;7.47;6.70;;;;;;;6.37;100.00;99470.97;5047804;28;20221;-56
2022/04/21 01:20:09;;;;;;;6.93;6.33;;;;;;;6.24;100.00;99450.50;5047726;28;20739;-57
2022/04/21 01:22:37;;;;;;;6.17;5.77;;;;;;;6.36;100.00;99474.41;5048105;28;20754;-58
2022/04/21 01:25:05;;;;;;;6.93;6.43;;;;;;;6.33;100.00;99478.72;5047715;28;20233;-56
2022/04/21 01:27:34;;;;;;;7.13;6.50;;;;;;;6.31;100.00;99476.19;5048026;28;20626;-57
2022/04/21 01:30:03;;;;;;;8.33;7.63;;;;;;;6.30;100.00;99466.75;5047771;28;20204;-58
2022/04/21 01:32:35;;;;;;;8.23;7.60;;;;;;;6.30;100.00;99469.34;5047751;28;20197;-58
2022/04/21 01:35:04;;;;;;;8.20;7.47;;;;;;;6.31;100.00;99465.91;5047585;28;20257;-59
2022/04/21 01:43:01;;;;;;;7.60;7.00;;;;;;;6.37;100.00;99452.06;5047418;28;20708;-59
2022/04/21 01:45:28;;;;;;;7.93;7.20;;;;;;;6.40;100.00;99450.31;5047434;28;20287;-59
2022/04/21 01:47:56;;;;;;;6.30;5.90;;;;;;;6.40;100.00;99450.31;5047787;28;20276;-59
2022/04/21 01:50:23;;;;;;;6.17;5.67;;;;;;;6.45;100.00;99443.34;5047204;28;20201;-59
2022/04/21 01:52:50;;;;;;;6.33;5.80;;;;;;;6.43;100.00;99450.25;5047177;28;20242;-58
2022/04/21 01:55:18;;;;;;;6.03;5.63;;;;;;;6.44;100.00;99444.22;5047440;28;20208;-58
2022/04/21 01:57:45;;;;;;;6.63;6.03;;;;;;;6.43;100.00;99445.09;5047715;28;20603;-58
2022/04/21 02:00:13;;;;;;;6.40;6.00;;;;;;;6.49;100.00;99447.59;5047657;28;20224;-58
2022/04/21 02:02:40;;;;;;;6.20;5.80;;;;;;;6.50;100.00;99443.28;5047378;28;20204;-58
2022/04/21 02:05:08;;;;;;;6.97;6.40;;;;;;;6.51;100.00;99442.44;5047367;28;20602;-58
2022/04/21 02:07:36;;;;;;;7.97;6.43;;;;;;;6.50;100.00;99444.16;5047182;28;20197;-57
2022/04/21 02:10:05;;;;;;;6.63;6.13;;;;;;;6.47;100.00;99436.44;5046917;28;20442;-57
2022/04/21 02:12:33;;;;;;;6.83;6.33;;;;;;;6.47;100.00;99441.59;5047574;28;20261;-58
2022/04/21 02:15:02;;;;;;;6.33;5.83;;;;;;;6.48;100.00;99445.03;5047362;28;20203;-57
2022/04/21 02:17:32;;;;;;;6.87;6.37;;;;;;;6.46;100.00;99442.47;5047282;28;20224;-57
2022/04/21 02:19:59;;;;;;;6.67;6.17;;;;;;;6.40;100.00;99445.16;5047087;28;20245;-56
2022/04/21 02:22:26;;;;;;;9.67;5.93;;;;;;;6.40;100.00;99444.28;5046841;28;20207;-56
2022/04/21 02:24:53;;;;;;;6.60;6.10;;;;;;;6.30;100.00;99448.72;5046597;28;20236;-56
2022/04/21 02:27:20;;;;;;;7.37;6.77;;;;;;;6.31;100.00;99450.44;5047026;28;20211;-56
2022/04/21 02:29:49;;;;;;;9.00;8.10;;;;;;;6.36;100.00;99453.78;5047151;28;20737;-56
2022/04/21 02:32:16;;;;;;;7.97;7.27;;;;;;;6.31;100.00;99447.00;5046732;28;20196;-56
2022/04/21 02:34:43;;;;;;;8.20;7.40;;;;;;;6.30;100.00;99447.88;5047173;28;20707;-56
2022/04/21 02:37:09;;;;;;;7.60;6.90;;;;;;;6.34;100.00;99446.94;5046446;28;20220;-57
2022/04/21 02:39:36;;;;;;;8.57;7.03;;;;;;;6.42;100.00;99448.56;5046875;28;20207;-58
2022/04/21 02:42:04;;;;;;;8.10;7.37;;;;;;;6.33;100.00;99442.66;5046977;28;20197;-56
2022/04/21 02:44:31;;;;;;;8.00;7.10;;;;;;;6.16;100.00;99407.66;5047157;28;20275;-56
2022/04/21 02:47:00;;;;;;;9.07;6.87;;;;;;;6.17;100.00;99434.28;5046953;28;20673;-57
2022/04/21 02:49:28;;;;;;;7.93;7.23;;;;;;;6.19;100.00;99440.28;5046552;28;20193;-57
2022/04/21 02:51:56;;;;;;;7.90;7.30;;;;;;;6.25;100.00;99437.59;5046511;28;20205;-57
2022/04/21 02:57:23;;;;;;;8.27;7.57;;;;;;;6.15;100.00;99431.72;5046519;28;20357;-59
2022/04/21 02:59:50;;;;;;;8.67;7.90;;;;;;;6.05;100.00;99426.69;5046612;28;20193;-59
2022/04/21 03:02:20;;;;;;;8.43;7.63;;;;;;;6.00;100.00;99428.47;5043243;28;20288;-58
2022/04/21 03:04:47;;;;;;;8.10;7.50;;;;;;;6.03;100.00;99428.44;5040065;28;20229;-58
2022/04/21 03:07:14;;;;;;;8.57;7.33;;;;;;;6.13;100.00;99427.44;5034030;28;20186;-58
2022/04/21 03:09:41;;;;;;;8.43;7.63;;;;;;;6.05;100.00;99413.81;5035757;28;20591;-56
2022/04/21 03:12:10;;;;;;;7.63;6.90;;;;;;;6.08;100.00;99437.81;5035084;28;20196;-57
2022/04/21 03:14:37;;;;;;;9.10;8.30;;;;;;;6.05;100.00;99443.00;5036229;28;20289;-57
2022/04/21 03:17:05;;;;;;;13.20;11.60;;;;;;;6.01;100.00;99451.63;5035098;28;20601;-57
2022/04/21 03:19:34;;;;;;;12.63;10.97;;;;;;;6.06;100.00;99449.00;5036288;28;20234;-57
2022/04/21 03:24:45;;;;;;;11.53;10.33;;;;;;;6.09;100.00;99436.97;5029942;28;20235;-56
2022/04/21 03:27:13;;;;;;;10.77;9.77;;;;;;;6.11;100.00;99444.63;5034473;28;20308;-56
2022/04/21 03:29:40;;;;;;;12.43;9.97;;;;;;;6.05;100.00;99448.16;5041299;28;20225;-56
2022/04/21 03:32:09;;;;;;;11.63;8.80;;;;;;;5.98;100.00;99453.41;5029299;28;20766;-56
2022/04/21 03:34:41;;;;;;;11.37;9.27;;;;;;;5.92;100.00;99450.88;5029479;27;20689;-56
2022/04/21 03:37:09;;;;;;;10.50;9.03;;;;;;;5.91;100.00;99457.75;5029020;28;20229;-57
2022/04/21 03:39:37;;;;;;;10.73;9.40;;;;;;;6.00;100.00;99464.53;5028879;27;20223;-57
2022/04/21 03:42:05;;;;;;;10.87;8.97;;;;;;;5.98;100.00;99471.44;5046419;28;20228;-57
2022/04/21 03:44:32;;;;;;;9.80;8.97;;;;;;;6.20;100.00;99470.31;5065031;28;20796;-58
2022/04/21 03:46:59;;;;;;;10.03;9.03;;;;;;;6.12;100.00;99470.41;5035288;28;20669;-58
2022/04/21 03:49:27;;;;;;;20.30;16.23;;;;;;;6.12;100.00;99475.53;5033506;28;20212;-58
2022/04/21 03:51:56;;;;;;;36.67;26.07;;;;;;;6.04;100.00;99466.22;5044600;28;20640;-58
2022/04/21 03:54:23;;;;;;;33.20;24.90;;;;;;;6.02;100.00;99458.50;5048337;28;20222;-58
2022/04/21 03:56:51;;;;;;;28.20;24.07;;;;;;;6.15;100.00;99474.66;5048143;28;20216;-57
2022/04/21 03:59:18;;;;;;;23.07;18.83;;;;;;;6.26;100.00;99471.97;5048762;28;20701;-58
2022/04/21 04:01:45;;;;;;;18.93;15.63;;;;;;;6.27;100.00;99468.50;5048562;28;20230;-58
2022/04/21 04:04:12;;;;;;;20.47;13.47;;;;;;;6.41;100.00;99462.31;5048410;28;20303;-58
2022/04/21 04:12:11;;;;;;;13.70;11.57;;;;;;;7.00;100.00;99464.94;5043904;28;20220;-58
2022/04/21 04:14:38;;;;;;;17.27;11.80;;;;;;;7.85;100.00;99451.41;5039795;27;20322;-58
2022/04/21 04:17:06;;;;;;;12.37;11.17;;;;;;;9.55;100.00;99464.91;5035959;28;20300;-57
2022/04/21 04:19:33;;;;;;;13.57;11.13;;;;;;;10.96;100.00;99477.38;5036468;28;20233;-58
2022/04/21 04:22:01;;;;;;;15.33;11.80;;;;;;;12.19;93.52;99484.50;5037547;28;20220;-58
2022/04/21 04:24:30;;;;;;;14.50;11.93;;;;;;;13.21;86.12;99472.84;5037117;28;20249;-57
2022/04/21 04:26:57;;;;;;;14.60;11.63;;;;;;;14.32;82.02;99480.31;5037828;28;20708;-57
2022/04/21 04:29:24;;;;;;;13.40;11.23;;;;;;;15.37;74.26;99476.25;5036824;28;20193;-57
2022/04/21 04:31:52;;;;;;;15.40;11.87;;;;;;;16.55;69.45;99479.78;5027741;28;20193;-57
2022/04/21 04:34:19;;;;;;;15.63;10.23;;;;;;;17.06;64.56;99455.09;5039786;28;20769;-58
2022/04/21 04:36:46;;;;;;;10.73;9.70;;;;;;;17.60;59.64;99478.31;5047557;28;20203;-57
2022/04/21 04:39:14;;;;;;;14.60;8.70;;;;;;;17.99;54.73;99473.34;5035519;28;20224;-58
2022/04/21 04:44:27;;;;;;;8.95;8.35;;;;;;;19.25;50.38;99475.13;5044138;28;20203;-58
2022/04/21 04:46:53;;;;;;;9.55;8.23;;;;;;;19.85;48.03;99482.56;5045234;28;20631;-58
2022/04/21 04:49:20;;;;;;;8.88;8.10;;;;;;;20.36;46.08;99479.97;5027193;28;20698;-60
2022/04/21 04:51:47;;;;;;;10.77;9.70;;;;;;;19.29;46.35;99481.88;5027474;28;20197;-60
2022/04/21 04:54:15;;;;;;;9.95;9.25;;;;;;;18.85;47.85;99485.53;5027378;28;20197;-58
2022/04/21 04:56:45;;;;;;;9.55;8.50;;;;;;;19.10;47.12;99476.09;5030465;28;20203;-60
2022/04/21 04:59:12;;;;;;;9.55;8.75;;;;;;;20.33;45.02;99473.09;5027329;28;20225;-59
2022/04/21 05:01:41;;;;;;;13.38;9.15;;;;;;;21.09;42.94;99467.69;5027564;28;20734;-60
2022/04/21 05:04:10;;;;;;;10.60;9.30;;;;;;;21.52;40.58;99475.97;5027587;28;20678;-59
2022/04/21 05:06:38;;;;;;;10.57;9.65;;;;;;;21.41;40.83;99467.16;5027337;28;20208;-60
2022/04/21 05:09:06;;;;;;;10.65;9.65;;;;;;;21.69;39.99;99462.31;5027172;28;20193;-58
2022/04/21 05:11:33;;;;;;;10.00;9.10;;;;;;;20.98;40.92;99465.84;5027216;28;20254;-58
2022/04/21 05:14:02;;;;;;;10.57;9.68;;;;;;;19.32;43.81;99465.88;5027171;28;20415;-58
2022/04/21 05:16:29;;;;;;;10.00;9.23;;;;;;;17.78;46.83;99457.09;5032347;28;20209;-59
2022/04/21 05:18:57;;;;;;;14.35;10.90;;;;;;;17.08;49.39;99469.91;5037654;28;20219;-60
2022/04/21 05:21:24;;;;;;;12.27;10.65;;;;;;;16.08;51.79;99469.19;5035514;28;20291;-60
2022/04/21 05:23:58;;;;;;;9.90;9.20;;;;;;;15.04;54.69;99454.34;5044368;28;20661;-59
2022/04/21 05:26:26;;;;;;;13.53;10.80;;;;;;;14.50;57.33;99472.53;5067708;28;20216;-59
2022/04/21 05:28:53;;;;;;;12.13;11.03;;;;;;;14.46;58.97;99478.78;5067462;28;20219;-59
2022/04/21 05:31:22;;;;;;;17.77;10.60;;;;;;;14.92;57.26;99488.91;5067542;28;20202;-61
2022/04/21 05:33:49;;;;;;;12.67;10.73;;;;;;;15.07;56.84;99481.19;5067831;28;20196;-59
2022/04/21 05:36:17;;;;;;;13.83;10.73;;;;;;;15.83;55.41;99485.28;5067715;28;20192;-59
2022/04/21 05:38:46;;;;;;;10.90;10.00;;;;;;;16.80;52.65;99486.34;5067160;28;20223;-59
2022/04/21 05:41:14;;;;;;;9.47;8.87;;;;;;;16.83;51.21;99491.41;5067337;28;20309;-60
2022/04/21 05:43:43;;;;;;;9.47;8.77;;;;;;;16.43;52.34;99493.53;5067274;28;20204;-61
2022/04/21 05:46:11;;;;;;;9.37;8.57;;;;;;;17.16;51.20;99494.78;5067402;28;20203;-58
2022/04/21 05:48:40;;;;;;;10.90;9.87;;;;;;;16.68;51.79;99496.56;5067620;28;20196;-59
2022/04/21 05:51:09;;;;;;;9.67;9.00;;;;;;;16.44;52.48;99502.22;5067434;28;20651;-59
2022/04/21 05:53:38;;;;;;;11.03;9.93;;;;;;;15.78;54.16;99505.63;5067794;27;20196;-59
2022/04/21 05:56:07;;;;;;;10.57;9.60;;;;;;;15.29;55.64;99508.91;5067430;28;20593;-59
2022/04/21 05:58:36;;;;;;;10.37;9.47;;;;;;;15.11;56.33;99503.66;5067461;28;20224;-58
2022/04/21 06:01:06;;;;;;;12.30;8.43;;;;;;;15.40;56.14;99510.09;5067144;28;20200;-58
2022/04/21 06:03:33;;;;;;;9.43;8.47;;;;;;;14.91;57.15;99506.34;5067242;27;20693;-58
2022/04/21 06:06:02;;;;;;;10.97;9.97;;;;;;;14.99;57.53;99506.00;5067242;28;20202;-59
2022/04/21 06:08:29;;;;;;;9.23;8.63;;;;;;;15.68;55.25;99499.16;5067189;28;20188;-59
2022/04/21 06:10:57;;;;;;;8.63;7.93;;;;;;;15.80;54.86;99495.09;5067361;28;20269;-59
2022/04/21 06:13:24;;;;;;;9.10;8.30;;;;;;;16.78;52.41;99488.19;5067138;27;20200;-60
2022/04/21 06:15:51;;;;;;;8.57;7.87;;;;;;;17.64;49.67;99490.31;5067085;27;20268;-59
2022/04/21 06:18:18;;;;;;;9.03;8.13;;;;;;;18.12;48.62;99491.84;5066826;28;20220;-59
2022/04/21 06:20:46;;;;;;;8.23;7.63;;;;;;;18.31;47.56;99495.03;5067086;28;20196;-59
2022/04/21 06:23:14;;;;;;;8.80;8.07;;;;;;;18.76;46.58;99486.13;5067104;27;20207;-59
2022/04/21 06:25:42;;;;;;;9.00;8.40;;;;;;;18.29;47.90;99488.19;5067042;27;20232;-58
2022/04/21 06:28:09;;;;;;;8.70;8.10;;;;;;;17.96;48.05;99485.81;5067080;28;20311;-59
2022/04/21 06:30:36;;;;;;;9.10;8.30;;;;;;;17.23;49.63;99483.03;5066766;28;20594;-59
2022/04/21 06:33:03;;;;;;;8.57;7.97;;;;;;;16.92;50.62;99485.66;5066987;27;20208;-58
2022/04/21 06:35:30;;;;;;;9.57;8.93;;;;;;;17.34;50.93;99483.25;5066942;27;20586;-58
2022/04/21 06:37:58;;;;;;;9.52;8.63;;;;;;;17.47;49.93;99493.91;5066787;27;20210;-58
2022/04/21 06:40:26;;;;;;;9.70;9.02;;;;;;;17.62;49.43;99493.00;5066697;28;20291;-57
2022/04/21 06:42:53;;;;;;;10.20;9.13;;;;;;;17.48;50.31;99486.88;5066782;28;20279;-61
2022/04/21 06:48:05;;;;;;;11.03;9.73;;;;;;;15.53;54.28;99484.19;5066848;28;20683;-58
2022/04/21 06:50:36;;;;;;;10.70;9.63;;;;;;;15.15;55.89;99483.44;5066782;28;20287;-57
2022/04/21 06:53:05;;;;;;;11.17;10.17;;;;;;;14.22;59.22;99473.81;5066504;28;20198;-57
2022/04/21 06:55:34;;;;;;;13.00;10.73;;;;;;;14.05;60.65;99469.31;5067065;28;20204;-58
2022/04/21 06:58:02;;;;;;;10.87;9.83;;;;;;;13.79;62.20;99465.22;5069375;28;20211;-58
2022/04/21 07:00:29;;;;;;;18.00;11.17;;;;;;;13.11;64.20;99468.88;5070435;28;20196;-58
2022/04/21 07:02:57;;;;;;;16.90;10.33;;;;;;;12.64;67.45;99476.75;5070351;28;20609;-58
2022/04/21 07:05:25;;;;;;;11.07;9.97;;;;;;;12.34;68.88;99477.91;5069971;28;20236;-57
2022/04/21 07:07:53;;;;;;;12.17;10.97;;;;;;;11.78;71.69;99483.38;5070128;28;20692;-57
2022/04/21 07:10:21;;;;;;;14.57;11.60;;;;;;;12.04;71.49;99473.81;5069778;28;20198;-59
2022/04/21 07:12:49;;;;;;;12.80;11.60;;;;;;;11.95;72.83;99473.25;5069934;28;20275;-59
2022/04/21 07:15:16;;;;;;;16.27;12.27;;;;;;;11.72;73.64;99475.75;5070188;27;20607;-57
2022/04/21 07:17:44;;;;;;;14.17;11.80;;;;;;;11.39;75.90;99479.50;5069983;28;20584;-59
2022/04/21 07:20:13;;;;;;;12.97;11.07;;;;;;;11.29;76.58;99481.50;5069973;28;20220;-58
2022/04/21 07:22:40;;;;;;;11.70;10.63;;;;;;;11.38;76.40;99483.84;5069958;28;20196;-58
2022/04/21 07:25:09;;;;;;;12.70;11.33;;;;;;;11.68;75.56;99471.56;5069745;28;20228;-57
2022/04/21 07:27:37;;;;;;;12.90;11.40;;;;;;;11.90;74.14;99471.69;5069398;28;20196;-58
2022/04/21 07:30:08;;;;;;;14.77;12.23;;;;;;;12.53;71.98;99475.47;5069550;28;20631;-58
2022/04/21 07:32:35;;;;;;;17.10;11.50;;;;;;;13.07;69.92;99480.34;5069560;28;20736;-58
2022/04/21 07:35:02;;;;;;;12.23;10.87;;;;;;;13.35;67.51;99475.75;5069741;28;20585;-58
2022/04/21 07:37:30;;;;;;;11.47;10.37;;;;;;;13.55;66.63;99474.06;5069288;27;20716;-58
2022/04/21 07:39:58;;;;;;;11.67;10.57;;;;;;;13.69;64.80;99475.19;5069388;28;20626;-58
2022/04/21 07:42:25;;;;;;;10.53;9.53;;;;;;;13.41;64.51;99477.25;5069415;28;20665;-57
2022/04/21 07:44:52;;;;;;;12.57;10.43;;;;;;;13.65;64.66;99478.88;5069349;27;20238;-57
2022/04/21 07:47:20;;;;;;;13.63;10.40;;;;;;;13.37;64.51;99480.91;5069083;28;20196;-57
2022/04/21 07:49:48;;;;;;;11.23;10.13;;;;;;;13.13;66.35;99474.88;5069159;27;20194;-58
2022/04/21 07:55:26;;;;;;;9.57;8.67;;;;;;;13.72;64.34;99463.78;4987749;28;20692;-57
2022/04/21 07:57:55;;;;;;;11.03;9.90;;;;;;;13.71;65.07;99473.38;5049703;28;20202;-58
2022/04/21 08:00:22;;;;;;;12.70;9.87;;;;;;;14.16;65.22;99469.69;5068898;27;20230;-59
2022/04/21 08:02:51;;;;;;;9.77;8.97;;;;;;;14.36;62.14;99474.03;5069332;28;20222;-58
2022/04/21 08:05:19;;;;;;;10.70;9.70;;;;;;;14.65;62.50;99483.19;5069112;28;20668;-58
2022/04/21 08:07:47;;;;;;;9.77;9.00;;;;;;;15.07;60.83;99475.13;5068552;28;20205;-58
2022/04/21 08:10:15;;;;;;;11.20;10.10;;;;;;;15.60;59.73;99475.97;5068880;28;20613;-58
2022/04/21 08:12:43;;;;;;;10.03;8.93;;;;;;;15.63;58.54;99479.38;5068736;28;20199;-57
2022/04/21 08:15:11;;;;;;;10.00;8.60;;;;;;;15.93;57.59;99473.44;5068798;28;20203;-58
2022/04/21 08:17:39;;;;;;;9.43;8.50;;;;;;;16.31;56.11;99473.22;5068870;27;20203;-58
2022/04/21 08:20:09;;;;;;;8.83;8.00;;;;;;;16.40;56.04;99483.19;5068917;27;20604;-58
2022/04/21 08:22:36;;;;;;;8.93;8.33;;;;;;;16.63;54.94;99484.63;5068891;28;20200;-57
2022/04/21 08:33:25;;;;;;;8.90;8.10;;;;;;;18.66;50.51;99489.44;5068566;28;20207;-57
2022/04/21 08:35:58;;;;;;;8.82;7.93;;;;;;;20.04;47.25;99485.66;5068833;28;20286;-58
2022/04/21 08:38:25;;;;;;;8.60;7.80;;;;;;;20.77;44.70;99493.72;5068570;28;20204;-57
2022/04/21 08:40:54;;;;;;;8.45;7.82;;;;;;;21.09;43.93;99490.59;5068577;28;20215;-58
2022/04/21 08:43:21;;;;;;;9.00;8.30;;;;;;;20.84;44.07;99487.09;5058659;28;20229;-58
2022/04/21 08:45:50;;;;;;;8.77;8.07;;;;;;;19.93;45.76;99493.44;5048525;28;20665;-58
2022/04/21 08:48:19;;;;;;;9.20;8.55;;;;;;;19.35;47.87;99480.63;5048168;28;20288;-58
2022/04/21 08:50:46;;;;;;;8.85;8.25;;;;;;;18.86;48.50;99479.34;5048287;28;20200;-58
2022/04/21 08:53:16;;;;;;;8.90;8.00;;;;;;;18.71;49.19;99485.59;5048169;28;20207;-58
2022/04/21 08:55:44;;;;;;;9.00;8.32;;;;;;;18.61;49.81;99486.25;5048301;28;20205;-57
2022/04/21 08:58:11;;;;;;;8.93;8.23;;;;;;;18.20;49.40;99458.06;5048209;28;20711;-58
2022/04/21 09:00:38;;;;;;;8.52;7.93;;;;;;;18.17;49.65;99481.06;5047944;28;20224;-58
2022/04/21 09:03:07;;;;;;;9.20;8.30;;;;;;;18.27;49.15;99482.19;5048427;28;20230;-58
2022/04/21 09:05:34;;;;;;;8.57;8.00;;;;;;;18.05;50.36;99480.03;5048063;28;20211;-60
2022/04/21 09:08:01;;;;;;;9.05;8.30;;;;;;;17.98;50.51;99473.44;5048266;28;20613;-58
2022/04/21 09:10:31;;;;;;;9.50;8.57;;;;;;;17.77;51.19;99475.56;5048151;28;20610;-57
2022/04/21 09:13:00;;;;;;;9.05;8.35;;;;;;;18.04;51.52;99473.09;5047913;28;20241;-57
2022/04/21 09:15:28;;;;;;;9.57;8.60;;;;;;;17.82;51.55;99473.50;5048055;28;20208;-57
2022/04/21 09:17:57;;;;;;;9.18;8.18;;;;;;;18.29;50.30;99467.16;5041452;28;20582;-57
2022/04/21 09:20:26;;;;;;;9.80;8.80;;;;;;;18.02;50.01;99467.91;5034980;28;20276;-57
2022/04/21 09:22:54;;;;;;;9.15;8.55;;;;;;;17.70;51.61;99466.34;5036063;28;20215;-57
2022/04/21 09:25:26;;;;;;;9.35;8.52;;;;;;;17.81;50.86;99463.09;5027752;28;20276;-58
2022/04/21 09:27:55;;;;;;;9.23;8.45;;;;;;;17.66;51.37;99457.81;5027891;28;20201;-58
2022/04/21 09:30:23;;;;;;;9.48;8.48;;;;;;;17.55;52.26;99464.59;5027810;28;20209;-57
2022/04/21 09:32:55;;;;;;;10.10;9.20;;;;;;;17.53;52.90;99456.78;5027903;28;20216;-57
2022/04/21 09:35:23;;;;;;;10.00;9.20;;;;;;;18.21;51.49;99458.91;5028092;28;20201;-57
2022/04/21 09:37:52;;;;;;;10.88;9.93;;;;;;;18.35;49.71;99453.66;5027717;28;20197;-58
2022/04/21 09:40:21;;;;;;;16.20;10.23;;;;;;;18.74;48.66;99456.47;5027981;28;20485;-58
2022/04/21 09:42:57;;;;;;;34.80;11.95;;;;;;;18.86;47.77;99455.69;5028008;28;20699;-57
2022/04/21 09:48:20;;;;;;;11.90;9.48;;;;;;;18.96;47.71;99453.31;5027721;28;20697;-57
2022/04/21 09:50:51;;;;;;;10.07;9.07;;;;;;;18.82;48.42;99456.84;5033347;28;20663;-57
2022/04/21 09:53:19;;;;;;;9.43;8.45;;;;;;;18.72;47.28;99434.69;5047250;28;20204;-57
2022/04/21 09:55:47;;;;;;;9.45;8.68;;;;;;;18.48;48.17;99431.78;5040836;28;20254;-57
2022/04/21 09:58:15;;;;;;;9.95;9.13;;;;;;;18.49;47.21;99432.63;5044061;28;20230;-58
2022/04/21 10:00:42;;;;;;;9.93;9.02;;;;;;;18.30;48.22;99426.81;5047110;28;20311;-58
2022/04/21 10:03:10;;;;;;;13.02;8.55;;;;;;;18.27;47.13;99432.28;5047141;28;20197;-58
2022/04/21 10:05:39;;;;;;;9.23;8.07;;;;;;;18.05;47.40;99412.59;5047211;28;20196;-58
2022/04/21 10:08:08;;;;;;;9.10;8.32;;;;;;;17.84;48.25;99419.09;5047427;28;20665;-56
2022/04/21 10:10:37;;;;;;;9.80;8.90;;;;;;;17.68;49.51;99424.44;5047119;28;20193;-57
2022/04/21 10:13:06;;;;;;;9.68;8.70;;;;;;;17.82;49.17;99421.00;5047116;28;20673;-58
2022/04/21 10:15:35;;;;;;;9.23;8.55;;;;;;;17.99;48.16;99426.06;5047082;28;20296;-58
2022/04/21 10:18:03;;;;;;;8.73;8.00;;;;;;;17.90;48.25;99429.25;5047113;28;20205;-59
2022/04/21 10:20:32;;;;;;;9.50;8.52;;;;;;;18.02;47.94;99398.78;5047189;28;20231;-57
2022/04/21 10:23:01;;;;;;;9.15;8.13;;;;;;;17.91;47.17;99430.94;5047538;28;20712;-57
2022/04/21 10:25:42;;;;;;;8.52;7.78;;;;;;;17.50;48.56;99420.22;5047003;28;20269;-57
2022/04/21 10:28:41;;;;;;;9.87;8.87;;;;;;;17.40;48.47;99417.31;5046851;28;20742;-57
2022/04/21 10:31:32;;;;;;;10.83;9.73;;;;;;;17.62;48.77;99416.03;5048597;28;20195;-57
2022/04/21 10:34:02;;;;;;;12.47;9.10;;;;;;;17.46;47.40;99415.28;5051177;28;20193;-56
2022/04/21 10:36:41;;;;;;;10.50;9.33;;;;;;;16.89;48.98;99417.66;5050469;28;20201;-57
2022/04/21 10:39:26;;;;;;;10.13;9.23;;;;;;;16.76;50.92;99416.66;5050496;28;20592;-58
2022/04/21 10:42:14;;;;;;;12.80;10.53;;;;;;;16.77;51.46;99406.09;5050431;28;20192;-57
2022/04/21 10:44:45;;;;;;;15.53;10.87;;;;;;;16.38;53.83;99406.47;5050405;28;20287;-58
2022/04/21 10:47:35;;;;;;;11.70;10.70;;;;;;;16.54;54.01;99407.34;5050329;28;20223;-58
2022/04/21 10:50:11;;;;;;;14.30;12.00;;;;;;;16.69;54.30;99401.28;5050420;28;20196;-58
2022/04/21 10:58:51;;;;;;;14.23;10.93;;;;;;;16.99;52.14;99395.25;5050305;28;20257;-57
2022/04/21 11:01:20;;;;;;;10.70;8.80;;;;;;;16.97;52.20;99391.84;5050349;28;20231;-57
2022/04/21 11:04:17;;;;;;;10.27;9.03;;;;;;;16.74;51.87;99402.78;5050011;28;20193;-58
2022/04/21 11:06:46;;;;;;;9.17;8.37;;;;;;;16.83;51.50;99397.88;5050229;28;20197;-58
2022/04/21 11:09:51;;;;;;;11.10;10.00;;;;;;;17.06;51.30;99399.19;5049952;28;20204;-58
2022/04/21 11:12:45;;;;;;;9.40;8.47;;;;;;;17.18;50.41;99403.72;5051834;28;20705;-57
2022/04/21 11:15:32;;;;;;;9.87;8.43;;;;;;;16.89;51.15;99412.44;5049782;28;20224;-57
2022/04/21 11:18:00;;;;;;;8.57;7.87;;;;;;;16.86;50.94;99381.97;5047497;28;20193;-56
2022/04/21 11:20:29;;;;;;;10.57;8.63;;;;;;;17.10;51.62;99403.34;5045626;28;20213;-57
2022/04/21 11:22:55;;;;;;;12.47;8.93;;;;;;;17.16;53.94;99386.41;5049699;28;20197;-57
2022/04/21 11:25:22;;;;;;;12.73;9.33;;;;;;;17.06;53.92;99389.56;5049708;28;20232;-57
2022/04/21 11:27:52;;;;;;;10.27;9.40;;;;;;;17.03;54.46;99389.75;5049788;28;20196;-58
2022/04/21 11:30:19;;;;;;;11.63;9.10;;;;;;;16.70;55.64;99389.03;5049678;28;20193;-57
2022/04/21 11:32:51;;;;;;;10.70;9.70;;;;;;;16.61;55.80;99350.19;5049340;28;20197;-56
2022/04/21 11:35:21;;;;;;;11.33;10.23;;;;;;;16.67;56.29;99365.59;5049558;28;20197;-58
2022/04/21 11:37:55;;;;;;;10.00;9.10;;;;;;;16.62;56.18;99367.63;5049772;28;20688;-57
2022/04/21 11:40:28;;;;;;;10.03;9.03;;;;;;;16.65;57.25;99356.97;5049539;28;20715;-57
2022/04/21 11:42:56;;;;;;;10.13;9.33;;;;;;;16.58;58.15;99360.84;5048651;28;20283;-58
2022/04/21 11:45:26;;;;;;;10.00;9.20;;;;;;;16.57;58.55;99356.53;5042695;28;20189;-57
2022/04/21 11:47:54;;;;;;;10.63;9.33;;;;;;;16.53;59.19;99355.00;5049579;28;20197;-58
2022/04/21 11:50:23;;;;;;;10.27;8.83;;;;;;;16.52;59.59;99346.31;5049479;28;20200;-57
2022/04/21 11:52:53;;;;;;;10.90;9.73;;;;;;;16.79;58.37;99338.72;5049497;28;20201;-58
2022/04/21 11:55:26;;;;;;;9.37;8.53;;;;;;;17.04;57.14;99338.16;5046537;28;20617;-56
2022/04/21 11:57:54;;;;;;;9.67;8.80;;;;;;;16.96;55.84;99320.22;5029359;28;20206;-57
2022/04/21 12:08:39;;;;;;;8.80;8.10;;;;;;;16.73;58.13;99322.47;5049270;28;20199;-57
2022/04/21 12:11:10;;;;;;;9.57;8.57;;;;;;;16.68;58.93;99318.34;5049403;28;20193;-57
2022/04/21 12:13:37;;;;;;;8.93;8.23;;;;;;;16.47;60.20;99332.63;5049387;28;20201;-57
2022/04/21 12:16:05;;;;;;;9.60;8.67;;;;;;;16.38;60.52;99299.06;5037969;28;20197;-57
2022/04/21 12:18:46;;;;;;;10.60;9.60;;;;;;;16.50;61.27;99313.25;5038443;28;20430;-57
2022/04/21 12:21:14;;;;;;;9.73;8.87;;;;;;;16.54;60.62;99313.00;5031435;28;20694;-57
2022/04/21 12:23:41;;;;;;;9.70;8.73;;;;;;;16.60;60.58;99312.66;5029177;28;20197;-57
2022/04/21 12:26:09;;;;;;;8.93;8.23;;;;;;;16.58;60.00;99304.06;5042565;28;20558;-58
2022/04/21 12:28:47;;;;;;;9.53;8.20;;;;;;;16.62;58.55;99309.97;5029054;28;20201;-58
2022/04/21 12:31:19;;;;;;;7.97;7.37;;;;;;;16.17;60.33;99308.97;5028660;28;20189;-57